Time;durP1;ratioP1;P1;durP2;ratioP2;P2;SDS_P1;SDS_P2;PMS_P1;PMS_P2;Temp;Humidity;BMP_temperature;BMP_pressure;BME280_temperature;BME280_humidity;BME280_pressure;Samples;Min_cycle;Max_cycle;Signal;HPM_P1;HPM_P2
2022/11/18 00:00:24;;;;;;;;;;;;;;;11.37;100.00;98975.09;6279548;22;19911;-82
2022/11/18 00:02:49;;;;;;;;;;;;;;;11.37;100.00;98973.25;6277776;22;20384;-84
2022/11/18 00:05:15;;;;;;;;;;;;;;;11.46;100.00;98979.19;6277278;22;19917;-81
2022/11/18 00:07:40;;;;;;;;;;;;;;;11.48;100.00;98987.75;6277556;22;19965;-85
2022/11/18 00:10:06;;;;;;;;;;;;;;;11.41;100.00;98986.94;6278020;22;19915;-86
2022/11/18 00:15:16;;;;;;;;;;;;;;;11.19;100.00;98980.19;6277384;22;19911;-82
2022/11/18 00:17:41;;;;;;;;;;;;;;;11.11;100.00;98986.50;6276961;22;20284;-81
2022/11/18 00:20:07;;;;;;;;;;;;;;;11.34;100.00;98984.28;6250027;22;19914;-81
2022/11/18 00:22:32;;;;;;;;;;;;;;;11.24;100.00;98991.00;6250086;22;19954;-85
2022/11/18 00:24:57;;;;;;;;;;;;;;;11.23;100.00;98998.16;6277265;22;19933;-84
2022/11/18 00:27:23;;;;;;;;;;;;;;;11.37;100.00;98994.47;6276841;22;19961;-84
2022/11/18 00:29:48;;;;;;;;;;;;;;;11.18;100.00;98999.78;6277401;22;19911;-82
2022/11/18 00:32:16;;;;;;;;;;;;;;;11.25;100.00;98996.13;6277217;22;19919;-84
2022/11/18 00:34:42;;;;;;;;;;;;;;;11.26;100.00;99002.25;6250328;22;19911;-83
2022/11/18 00:37:07;;;;;;;;;;;;;;;11.36;100.00;99000.00;6277496;22;19957;-87
2022/11/18 00:39:33;;;;;;;;;;;;;;;11.47;100.00;98982.66;6250507;22;19907;-83
2022/11/18 00:44:42;;;;;;;;;;;;;;;11.43;100.00;98962.88;6280605;22;19917;-83
2022/11/18 00:47:07;;;;;;;;;;;;;;;11.48;100.00;98968.34;6250285;22;20293;-81
2022/11/18 00:49:33;;;;;;;;;;;;;;;11.40;100.00;98961.44;6280743;22;19911;-81
2022/11/18 00:52:00;;;;;;;;;;;;;;;11.35;100.00;98958.56;6265595;22;19914;-84
2022/11/18 00:54:25;;;;;;;;;;;;;;;11.28;100.00;98952.44;6286486;22;19986;-84
2022/11/18 00:56:50;;;;;;;;;;;;;;;11.28;100.00;98958.56;6279511;22;19922;-85
2022/11/18 00:59:16;;;;;;;;;;;;;;;11.50;100.00;98956.50;6279576;22;19911;-82
2022/11/18 01:01:42;;;;;;;;;;;;;;;11.59;100.00;98955.28;6279302;22;19938;-86
2022/11/18 01:04:08;;;;;;;;;;;;;;;11.48;100.00;98949.78;6278827;22;19907;-83
2022/11/18 01:06:33;;;;;;;;;;;;;;;11.36;100.00;98944.28;6279397;22;20245;-83
2022/11/18 01:08:59;;;;;;;;;;;;;;;11.32;100.00;98941.25;6278858;22;19915;-82
2022/11/18 01:14:09;;;;;;;;;;;;;;;11.23;100.00;98920.44;6278704;22;19957;-82
2022/11/18 01:16:34;;;;;;;;;;;;;;;11.12;100.00;98915.75;6278619;22;19907;-83
2022/11/18 01:19:00;;;;;;;;;;;;;;;10.99;100.00;98910.44;6278630;22;19911;-82
2022/11/18 01:21:25;;;;;;;;;;;;;;;10.90;100.00;98910.63;6278551;22;19911;-83
2022/11/18 01:23:50;;;;;;;;;;;;;;;10.90;100.00;98907.97;6278360;22;19946;-82
2022/11/18 01:26:16;;;;;;;;;;;;;;;10.99;100.00;98889.25;6278176;22;19918;-84
2022/11/18 01:28:42;;;;;;;;;;;;;;;11.08;100.00;98882.69;6278746;22;19915;-83
2022/11/18 01:31:09;;;;;;;;;;;;;;;11.10;100.00;98865.56;6278184;22;19911;-85
2022/11/18 01:33:34;;;;;;;;;;;;;;;11.06;100.00;98852.94;6278367;22;19990;-83
2022/11/18 01:36:00;;;;;;;;;;;;;;;11.04;100.00;98863.75;6278103;22;19976;-82
2022/11/18 01:38:27;;;;;;;;;;;;;;;11.16;100.00;98858.63;6278151;22;20309;-83
2022/11/18 01:40:53;;;;;;;;;;;;;;;11.22;100.00;98844.56;6278092;22;20010;-84
2022/11/18 01:43:20;;;;;;;;;;;;;;;11.14;100.00;98823.53;6278072;22;20389;-82
2022/11/18 01:45:47;;;;;;;;;;;;;;;11.16;100.00;98824.16;6250705;22;19986;-84
2022/11/18 01:48:15;;;;;;;;;;;;;;;11.09;100.00;98826.00;6278173;22;19953;-82
2022/11/18 01:50:46;;;;;;;;;;;;;;;11.22;100.00;98826.81;6278249;22;19938;-81
2022/11/18 01:53:15;;;;;;;;;;;;;;;11.30;100.00;98825.78;6278186;22;19911;-83
2022/11/18 01:55:44;;;;;;;;;;;;;;;11.27;100.00;98828.81;6277838;22;19921;-82
2022/11/18 01:58:15;;;;;;;;;;;;;;;11.35;100.00;98833.91;6277685;22;19922;-82
2022/11/18 02:00:40;;;;;;;;;;;;;;;11.23;100.00;98838.22;6251511;22;20060;-87
2022/11/18 02:03:06;;;;;;;;;;;;;;;11.05;100.00;98825.59;6277945;22;19911;-85
2022/11/18 02:05:32;;;;;;;;;;;;;;;11.05;100.00;98820.31;6278044;22;19918;-85
2022/11/18 02:07:59;;;;;;;;;;;;;;;11.10;100.00;98817.06;6278023;22;19915;-84
2022/11/18 02:10:24;;;;;;;;;;;;;;;11.26;100.00;98828.03;6278321;22;20254;-83
2022/11/18 02:12:50;;;;;;;;;;;;;;;11.31;100.00;98830.03;6278436;22;20001;-86
2022/11/18 02:15:16;;;;;;;;;;;;;;;11.27;100.00;98831.47;6258270;22;19930;-84
2022/11/18 02:17:41;;;;;;;;;;;;;;;11.27;100.00;98826.97;6300103;22;19910;-84
2022/11/18 02:20:25;;;;;;;;;;;;;;;11.19;100.00;98819.28;6279179;22;19918;-86
2022/11/18 02:22:51;;;;;;;;;;;;;;;11.16;100.00;98816.22;6278709;22;19994;-85
2022/11/18 02:25:26;;;;;;;;;;;;;;;11.31;100.00;98814.94;6278783;22;19918;-86
2022/11/18 02:27:53;;;;;;;;;;;;;;;11.34;100.00;98837.56;6279093;22;19915;-83
2022/11/18 02:30:18;;;;;;;;;;;;;;;11.47;100.00;98850.81;6261545;22;19935;-84
2022/11/18 02:32:46;;;;;;;;;;;;;;;11.38;100.00;98862.66;6295248;22;19902;-84
2022/11/18 02:35:21;;;;;;;;;;;;;;;11.25;100.00;98883.91;6295729;22;19896;-85
2022/11/18 02:37:49;;;;;;;;;;;;;;;11.02;100.00;98896.78;6302263;22;19916;-87
2022/11/18 02:40:14;;;;;;;;;;;;;;;10.81;100.00;98903.91;6302617;22;19911;-87
2022/11/18 02:42:41;;;;;;;;;;;;;;;10.89;100.00;98894.94;6296349;22;19942;-88
2022/11/18 02:45:09;;;;;;;;;;;;;;;10.71;100.00;98881.47;6280109;22;19953;-84
2022/11/18 02:47:36;;;;;;;;;;;;;;;10.63;100.00;98879.84;6279177;22;19986;-86
2022/11/18 02:50:07;;;;;;;;;;;;;;;10.66;100.00;98852.97;6279375;22;20168;-88
2022/11/18 02:52:32;;;;;;;;;;;;;;;10.66;100.00;98852.13;6278952;22;19917;-84
2022/11/18 02:54:59;;;;;;;;;;;;;;;10.74;100.00;98849.28;6278854;22;19911;-84
2022/11/18 02:57:27;;;;;;;;;;;;;;;10.65;100.00;98861.09;6278484;22;20254;-88
2022/11/18 02:59:53;;;;;;;;;;;;;;;10.74;100.00;98844.78;6251214;22;20242;-82
2022/11/18 03:02:20;;;;;;;;;;;;;;;10.80;100.00;98843.97;6277824;22;19965;-84
2022/11/18 03:04:46;;;;;;;;;;;;;;;10.71;100.00;98845.19;6278112;22;19953;-87
2022/11/18 03:07:17;;;;;;;;;;;;;;;10.81;100.00;98839.50;6278818;22;19914;-85
2022/11/18 03:09:44;;;;;;;;;;;;;;;10.91;100.00;98824.00;6278226;22;19911;-83
2022/11/18 03:12:13;;;;;;;;;;;;;;;10.90;100.00;98831.13;6250442;22;19911;-84
2022/11/18 03:14:57;;;;;;;;;;;;;;;10.83;100.00;98827.69;6277394;22;19966;-87
2022/11/18 03:17:41;;;;;;;;;;;;;;;10.78;100.00;98824.81;6277026;22;19911;-84
2022/11/18 03:20:18;;;;;;;;;;;;;;;10.67;100.00;98828.06;6277460;22;20349;-83
2022/11/18 03:22:52;;;;;;;;;;;;;;;10.68;100.00;98824.41;6277392;22;20246;-84
2022/11/18 03:25:20;;;;;;;;;;;;;;;10.76;100.00;98829.53;6277418;22;20353;-85
2022/11/18 03:27:52;;;;;;;;;;;;;;;10.72;100.00;98830.94;6277733;22;19943;-83
2022/11/18 03:30:19;;;;;;;;;;;;;;;10.72;100.00;98830.94;6277690;22;19918;-82
2022/11/18 03:32:49;;;;;;;;;;;;;;;10.66;100.00;98823.81;6277382;22;20021;-84
2022/11/18 03:35:21;;;;;;;;;;;;;;;10.60;100.00;98818.50;6277330;22;19986;-83
2022/11/18 03:37:49;;;;;;;;;;;;;;;10.52;100.00;98819.53;6277346;22;19911;-85
2022/11/18 03:40:20;;;;;;;;;;;;;;;10.55;100.00;98813.81;6283858;22;19957;-82
2022/11/18 03:42:49;;;;;;;;;;;;;;;10.60;100.00;98816.69;6270294;22;19951;-84
2022/11/18 03:45:21;;;;;;;;;;;;;;;10.52;100.00;98808.94;6277871;22;19911;-84
2022/11/18 03:47:49;;;;;;;;;;;;;;;10.52;100.00;98805.47;6281374;22;20288;-84
2022/11/18 03:50:17;;;;;;;;;;;;;;;10.57;100.00;98814.41;6278850;22;19934;-82
2022/11/18 03:52:43;;;;;;;;;;;;;;;10.54;100.00;98806.88;6277149;22;19915;-83
2022/11/18 03:55:15;;;;;;;;;;;;;;;10.60;100.00;98806.09;6277383;22;19943;-83
2022/11/18 03:58:02;;;;;;;;;;;;;;;10.62;100.00;98798.75;6277282;22;19919;-85
2022/11/18 04:00:31;;;;;;;;;;;;;;;10.68;100.00;98803.22;6278041;22;19934;-88
2022/11/18 04:02:57;;;;;;;;;;;;;;;10.84;100.00;98812.56;6279400;22;19917;-84
2022/11/18 04:05:22;;;;;;;;;;;;;;;10.63;100.00;98805.69;6277813;22;21023;-84
2022/11/18 04:07:54;;;;;;;;;;;;;;;10.64;100.00;98812.59;6278724;22;19938;-86
2022/11/18 04:10:54;;;;;;;;;;;;;;;10.64;100.00;98806.50;6277802;22;19911;-85
2022/11/18 04:13:23;;;;;;;;;;;;;;;10.55;100.00;98813.81;6153808;23;19916;-83
2022/11/18 04:15:51;;;;;;;;;;;;;;;10.49;100.00;98819.94;6253914;22;19918;-86
2022/11/18 04:18:19;;;;;;;;;;;;;;;10.50;100.00;98818.91;6277460;22;19911;-85
2022/11/18 04:20:44;;;;;;;;;;;;;;;10.48;100.00;98807.69;6277223;22;20330;-85
2022/11/18 04:23:09;;;;;;;;;;;;;;;10.41;100.00;98801.56;6249926;22;19911;-84
2022/11/18 04:25:35;;;;;;;;;;;;;;;10.43;100.00;98799.56;6277722;22;19942;-82
2022/11/18 04:28:01;;;;;;;;;;;;;;;10.47;100.00;98800.78;6279464;22;19976;-87
2022/11/18 04:30:26;;;;;;;;;;;;;;;10.47;100.00;98797.31;6280721;22;19915;-82
2022/11/18 04:32:52;;;;;;;;;;;;;;;10.52;100.00;98802.81;6280126;22;19911;-84
2022/11/18 04:35:17;;;;;;;;;;;;;;;10.48;100.00;98802.41;6280755;22;19911;-87
2022/11/18 04:37:42;;;;;;;;;;;;;;;10.45;100.00;98797.50;6280592;22;19911;-85
2022/11/18 04:40:08;;;;;;;;;;;;;;;10.48;100.00;98799.75;6280586;22;19907;-86
2022/11/18 04:42:34;;;;;;;;;;;;;;;10.39;100.00;98808.94;6280429;22;19911;-86
2022/11/18 04:44:59;;;;;;;;;;;;;;;10.32;100.00;98814.22;6281240;22;19911;-85
2022/11/18 04:47:24;;;;;;;;;;;;;;;10.31;100.00;98814.41;6253575;22;19917;-86
2022/11/18 04:49:50;;;;;;;;;;;;;;;10.24;100.00;98813.59;6280788;22;19984;-86
2022/11/18 04:52:15;;;;;;;;;;;;;;;10.23;100.00;98815.44;6281601;22;19934;-84
2022/11/18 04:54:40;;;;;;;;;;;;;;;10.25;100.00;98812.56;6282867;22;19922;-83
2022/11/18 04:57:06;;;;;;;;;;;;;;;10.31;100.00;98814.41;6282144;22;19923;-83
2022/11/18 04:59:31;;;;;;;;;;;;;;;10.31;100.00;98806.47;6283022;22;19907;-86
2022/11/18 05:01:58;;;;;;;;;;;;;;;10.33;100.00;98815.03;6282219;22;19919;-85
2022/11/18 05:04:25;;;;;;;;;;;;;;;10.29;100.00;98814.63;6284836;22;19918;-82
2022/11/18 05:06:50;;;;;;;;;;;;;;;10.30;100.00;98810.16;6296348;22;19930;-87
2022/11/18 05:09:16;;;;;;;;;;;;;;;10.27;100.00;98798.09;6293099;22;19915;-85
2022/11/18 05:14:26;;;;;;;;;;;;;;;10.29;100.00;98803.22;6281724;22;20345;-84
2022/11/18 05:16:52;;;;;;;;;;;;;;;10.31;100.00;98807.28;6281975;22;20036;-86
2022/11/18 05:19:17;;;;;;;;;;;;;;;10.33;100.00;98801.78;6281868;22;19915;-85
2022/11/18 05:21:42;;;;;;;;;;;;;;;10.32;100.00;98802.81;6281158;22;20326;-83
2022/11/18 05:24:08;;;;;;;;;;;;;;;10.28;100.00;98804.22;6281300;22;19998;-84
2022/11/18 05:26:33;;;;;;;;;;;;;;;10.31;100.00;98812.56;6281085;22;19914;-84
2022/11/18 05:28:59;;;;;;;;;;;;;;;10.35;100.00;98812.97;6281773;22;19923;-86
2022/11/18 05:31:24;;;;;;;;;;;;;;;10.41;100.00;98812.16;6280865;22;20299;-84
2022/11/18 05:33:50;;;;;;;;;;;;;;;10.41;100.00;98806.88;6254029;22;19964;-85
2022/11/18 05:36:17;;;;;;;;;;;;;;;10.46;100.00;98809.75;6280918;22;19912;-86
2022/11/18 05:38:43;;;;;;;;;;;;;;;10.46;100.00;98806.28;6279534;22;19907;-85
2022/11/18 05:41:08;;;;;;;;;;;;;;;10.46;100.00;98804.44;6278591;22;19957;-84
2022/11/18 05:43:34;;;;;;;;;;;;;;;10.51;100.00;98802.00;6282600;22;19938;-85
2022/11/18 05:46:00;;;;;;;;;;;;;;;10.60;100.00;98810.56;6280279;22;19938;-84
2022/11/18 05:48:26;;;;;;;;;;;;;;;10.73;100.00;98816.69;6283315;22;19911;-83
2022/11/18 05:50:52;;;;;;;;;;;;;;;10.82;100.00;98820.75;6283880;22;19939;-85
2022/11/18 05:53:19;;;;;;;;;;;;;;;10.72;100.00;98830.94;6279919;22;19918;-86
2022/11/18 05:55:53;;;;;;;;;;;;;;;10.61;100.00;98834.19;6251095;22;19998;-81
2022/11/18 05:58:19;;;;;;;;;;;;;;;10.53;100.00;98830.94;6278055;22;19960;-83
2022/11/18 06:00:46;;;;;;;;;;;;;;;10.54;100.00;98835.22;6251951;22;20281;-82
2022/11/18 06:03:23;;;;;;;;;;;;;;;10.50;100.00;98842.75;6251076;22;19911;-82
2022/11/18 06:05:51;;;;;;;;;;;;;;;10.49;100.00;98840.31;6251788;22;19989;-83
2022/11/18 06:08:18;;;;;;;;;;;;;;;10.47;100.00;98843.16;6278134;22;20326;-82
2022/11/18 06:10:44;;;;;;;;;;;;;;;10.51;100.00;98843.56;6278254;22;20353;-82
2022/11/18 06:13:13;;;;;;;;;;;;;;;10.44;100.00;98845.41;6278212;22;19911;-82
2022/11/18 06:15:40;;;;;;;;;;;;;;;10.41;100.00;98849.25;6243867;22;19933;-85
2022/11/18 06:18:07;;;;;;;;;;;;;;;10.44;100.00;98848.84;6278715;22;19917;-83
2022/11/18 06:20:34;;;;;;;;;;;;;;;10.47;100.00;98851.13;6279187;22;19965;-88
2022/11/18 06:23:00;;;;;;;;;;;;;;;10.43;100.00;98849.88;6278872;22;19911;-81
2022/11/18 06:25:27;;;;;;;;;;;;;;;10.47;100.00;98853.75;6278620;22;19915;-85
2022/11/18 06:27:56;;;;;;;;;;;;;;;10.41;100.00;98854.53;6251472;22;20331;-85
2022/11/18 06:30:21;;;;;;;;;;;;;;;10.47;100.00;98843.16;6280488;22;19915;-84
2022/11/18 06:32:46;;;;;;;;;;;;;;;10.44;100.00;98854.13;6293182;22;19907;-84
2022/11/18 06:35:12;;;;;;;;;;;;;;;10.44;100.00;98853.34;6254562;22;19907;-86
2022/11/18 06:37:37;;;;;;;;;;;;;;;10.46;100.00;98862.72;6278348;22;20322;-83
2022/11/18 06:40:03;;;;;;;;;;;;;;;10.44;100.00;98856.78;6278155;22;19911;-85
2022/11/18 06:45:12;;;;;;;;;;;;;;;10.45;100.00;98853.13;6278543;22;20349;-84
2022/11/18 06:47:37;;;;;;;;;;;;;;;10.48;100.00;98850.06;6278263;22;19907;-83
2022/11/18 06:50:03;;;;;;;;;;;;;;;10.51;100.00;98844.38;6278562;22;19922;-82
2022/11/18 06:52:28;;;;;;;;;;;;;;;10.56;100.00;98843.78;6278066;22;19911;-82
2022/11/18 06:54:54;;;;;;;;;;;;;;;10.54;100.00;98833.38;6249877;22;20381;-84
2022/11/18 06:57:19;;;;;;;;;;;;;;;10.59;100.00;98836.25;6275865;22;19988;-85
2022/11/18 06:59:45;;;;;;;;;;;;;;;10.61;100.00;98839.50;6276296;22;20285;-85
2022/11/18 07:02:10;;;;;;;;;;;;;;;10.77;100.00;98839.09;6276383;22;19951;-82
2022/11/18 07:04:38;;;;;;;;;;;;;;;10.92;100.00;98840.72;6276574;22;19918;-82
2022/11/18 07:07:05;;;;;;;;;;;;;;;10.85;100.00;98852.13;6277138;22;19911;-81
2022/11/18 07:09:30;;;;;;;;;;;;;;;10.91;100.00;98855.78;6277089;22;20246;-82
2022/11/18 07:11:56;;;;;;;;;;;;;;;10.85;100.00;98859.25;6279251;22;19907;-82
2022/11/18 07:14:21;;;;;;;;;;;;;;;10.78;100.00;98850.50;6279767;22;20409;-83
2022/11/18 07:16:47;;;;;;;;;;;;;;;10.81;100.00;98858.03;6289574;22;19982;-84
2022/11/18 07:19:14;;;;;;;;;;;;;;;10.86;100.00;98859.06;6263864;22;19911;-82
2022/11/18 07:21:40;;;;;;;;;;;;;;;10.84;100.00;98866.41;6301915;22;19903;-82
2022/11/18 07:24:06;;;;;;;;;;;;;;;10.89;100.00;98869.28;6300757;22;19916;-83
2022/11/18 07:26:32;;;;;;;;;;;;;;;10.98;100.00;98871.69;6301498;22;20247;-82
2022/11/18 07:29:00;;;;;;;;;;;;;;;11.01;100.00;98865.97;6292307;22;19919;-83
2022/11/18 07:31:26;;;;;;;;;;;;;;;11.06;100.00;98871.50;6250750;22;19918;-83
2022/11/18 07:33:53;;;;;;;;;;;;;;;11.22;100.00;98871.06;6277974;22;19911;-82
2022/11/18 07:36:20;;;;;;;;;;;;;;;11.30;100.00;98874.31;6278540;22;19938;-84
2022/11/18 07:38:46;;;;;;;;;;;;;;;11.41;100.00;98873.69;6279766;22;20041;-84
2022/11/18 07:41:13;;;;;;;;;;;;;;;11.45;100.00;98874.09;6280865;22;19915;-83
2022/11/18 07:43:39;;;;;;;;;;;;;;;11.59;100.00;98874.88;6253736;22;19907;-83
2022/11/18 07:46:15;;;;;;;;;;;;;;;11.93;100.00;98881.72;6284917;22;19917;-81
2022/11/18 07:48:42;;;;;;;;;;;;;;;12.05;100.00;98880.03;6273269;22;19926;-80
2022/11/18 07:51:07;;;;;;;;;;;;;;;11.78;100.00;98890.75;6300801;22;19918;-83
2022/11/18 07:53:33;;;;;;;;;;;;;;;11.65;100.00;98896.06;6274863;22;19911;-81
2022/11/18 07:55:59;;;;;;;;;;;;;;;11.50;100.00;98890.19;6302062;22;19907;-81
2022/11/18 07:58:24;;;;;;;;;;;;;;;11.65;100.00;98890.78;6300655;22;19916;-82
2022/11/18 08:00:49;;;;;;;;;;;;;;;11.72;100.00;98902.22;6293551;22;19984;-80
2022/11/18 08:03:15;;;;;;;;;;;;;;;11.86;100.00;98906.44;6299310;22;19922;-81
2022/11/18 08:05:40;;;;;;;;;;;;;;;12.20;100.00;98909.78;6275693;22;19903;-83
2022/11/18 08:08:06;;;;;;;;;;;;;;;12.20;100.00;98909.78;6301660;22;19914;-83
2022/11/18 08:10:31;;;;;;;;;;;;;;;12.41;100.00;98918.25;6300020;22;19918;-84
2022/11/18 08:12:56;;;;;;;;;;;;;;;12.41;100.00;98917.44;6300153;22;19911;-81
2022/11/18 08:15:22;;;;;;;;;;;;;;;12.40;100.00;98910.50;6300728;22;19947;-83
2022/11/18 08:17:48;;;;;;;;;;;;;;;12.58;100.00;98917.75;6290815;22;19918;-84
2022/11/18 08:20:13;;;;;;;;;;;;;;;12.37;100.00;98906.44;6279041;22;19911;-85
2022/11/18 08:22:39;;;;;;;;;;;;;;;12.23;100.00;98910.16;6279333;22;19907;-84
2022/11/18 08:25:04;;;;;;;;;;;;;;;12.22;100.00;98907.75;6278349;22;19918;-84
2022/11/18 08:27:30;;;;;;;;;;;;;;;12.28;100.00;98912.19;6278729;22;19994;-84
2022/11/18 08:29:55;;;;;;;;;;;;;;;12.42;100.00;98911.94;6251780;22;19911;-84
2022/11/18 08:32:21;;;;;;;;;;;;;;;12.49;100.00;98914.53;6278573;22;20250;-82
2022/11/18 08:34:46;;;;;;;;;;;;;;;12.38;100.00;98910.72;6278530;22;19973;-85
2022/11/18 08:37:11;;;;;;;;;;;;;;;12.62;100.00;98906.50;6278338;22;19953;-85
2022/11/18 08:39:37;;;;;;;;;;;;;;;12.49;100.00;98917.19;6250954;22;19911;-83
2022/11/18 08:42:02;;;;;;;;;;;;;;;12.55;100.00;98908.38;6250416;22;19998;-84
2022/11/18 08:44:30;;;;;;;;;;;;;;;12.63;100.00;98913.41;6278411;22;19918;-82
2022/11/18 08:46:55;;;;;;;;;;;;;;;12.75;100.00;98925.00;6277838;22;19907;-85
2022/11/18 08:49:20;;;;;;;;;;;;;;;12.77;100.00;98922.94;6277968;22;19994;-85
2022/11/18 08:51:46;;;;;;;;;;;;;;;12.73;100.00;98931.53;6277785;22;19911;-86
2022/11/18 08:54:11;;;;;;;;;;;;;;;12.75;100.00;98932.97;6250441;22;19968;-85
2022/11/18 08:56:37;;;;;;;;;;;;;;;12.74;100.00;98936.66;6278132;22;20236;-84
2022/11/18 08:59:02;;;;;;;;;;;;;;;12.93;100.00;98933.03;6277407;22;19922;-82
2022/11/18 09:01:27;;;;;;;;;;;;;;;12.74;100.00;98933.19;6281453;22;19918;-85
2022/11/18 09:03:53;;;;;;;;;;;;;;;12.81;100.00;98936.63;6252255;22;20388;-83
2022/11/18 09:06:20;;;;;;;;;;;;;;;13.00;100.00;98932.19;6277672;22;20273;-82
2022/11/18 09:08:46;;;;;;;;;;;;;;;12.98;100.00;98939.56;6277008;22;19915;-84
2022/11/18 09:11:24;;;;;;;;;;;;;;;13.08;100.00;98951.34;6277645;22;20211;-82
2022/11/18 09:13:54;;;;;;;;;;;;;;;13.13;100.00;98942.75;6277859;22;19934;-85
2022/11/18 09:16:22;;;;;;;;;;;;;;;13.18;100.00;98956.22;6279596;22;20432;-82
2022/11/18 09:18:48;;;;;;;;;;;;;;;13.11;100.00;98952.81;6252420;22;19957;-84
2022/11/18 09:21:13;;;;;;;;;;;;;;;13.50;100.00;98948.97;6279373;22;19918;-82
2022/11/18 09:23:39;;;;;;;;;;;;;;;13.59;100.00;98948.47;6279177;22;19911;-84
2022/11/18 09:26:05;;;;;;;;;;;;;;;13.77;100.00;98955.69;6279174;22;19918;-84
2022/11/18 09:28:31;;;;;;;;;;;;;;;13.86;100.00;98954.34;6279294;22;20350;-85
2022/11/18 09:30:56;;;;;;;;;;;;;;;13.75;100.00;98953.25;6279263;22;19911;-83
2022/11/18 09:33:23;;;;;;;;;;;;;;;13.74;100.00;98956.94;6279709;22;19911;-83
2022/11/18 09:35:49;;;;;;;;;;;;;;;13.99;100.00;98965.69;6280530;22;19911;-83
2022/11/18 09:38:14;;;;;;;;;;;;;;;13.96;100.00;98976.78;6263146;22;20278;-85
2022/11/18 09:41:00;;;;;;;;;;;;;;;13.99;100.00;98967.53;6279249;22;19907;-84
2022/11/18 09:43:44;;;;;;;;;;;;;;;13.81;100.00;98984.31;6217162;22;19911;-81
2022/11/18 09:46:28;;;;;;;;;;;;;;;13.76;100.00;98986.00;6278984;22;19941;-85
2022/11/18 09:49:13;;;;;;;;;;;;;;;13.43;100.00;98986.28;6278286;22;19937;-83
2022/11/18 09:51:43;;;;;;;;;;;;;;;13.27;100.00;98982.34;6278463;22;19911;-84
2022/11/18 09:54:15;;;;;;;;;;;;;;;13.28;100.00;98983.16;6279000;22;19911;-82
2022/11/18 09:56:44;;;;;;;;;;;;;;;13.35;100.00;98979.44;6279612;22;20365;-84
2022/11/18 09:59:12;;;;;;;;;;;;;;;13.31;100.00;98985.38;6280818;22;20303;-84
2022/11/18 10:01:38;;;;;;;;;;;;;;;13.24;100.00;98981.97;6279039;22;20311;-82
2022/11/18 10:04:03;;;;;;;;;;;;;;;13.25;100.00;98991.56;6280117;22;19918;-80
2022/11/18 10:06:31;;;;;;;;;;;;;;;13.46;100.00;98991.19;6251581;22;19960;-80
2022/11/18 10:09:08;;;;;;;;;;;;;;;13.53;100.00;98986.63;6251207;22;19918;-82
2022/11/18 10:11:38;;;;;;;;;;;;;;;13.69;100.00;98978.06;6277623;22;20333;-84
2022/11/18 10:14:06;;;;;;;;;;;;;;;13.90;100.00;98982.16;6277501;22;20338;-86
2022/11/18 10:16:52;;;;;;;;;;;;;;;14.10;100.00;98981.97;6277371;22;19982;-82
2022/11/18 10:19:28;;;;;;;;;;;;;;;13.97;100.00;98983.75;6277720;22;19911;-83
2022/11/18 10:21:53;;;;;;;;;;;;;;;14.06;100.00;98981.59;6278060;22;19911;-85
2022/11/18 10:24:20;;;;;;;;;;;;;;;14.01;100.00;98978.78;6250460;22;19982;-84
2022/11/18 10:26:46;;;;;;;;;;;;;;;13.87;100.00;98977.28;6277822;22;20260;-84
2022/11/18 10:29:11;;;;;;;;;;;;;;;13.90;100.00;98983.00;6250816;22;19973;-85
2022/11/18 10:31:51;;;;;;;;;;;;;;;13.84;100.00;98983.88;6251286;22;19985;-82
2022/11/18 10:34:17;;;;;;;;;;;;;;;13.99;100.00;98972.84;6278178;22;19911;-83
2022/11/18 10:36:43;;;;;;;;;;;;;;;13.91;100.00;98973.16;6277921;22;19913;-83
2022/11/18 10:39:10;;;;;;;;;;;;;;;14.01;100.00;98973.47;6277864;22;20247;-83
2022/11/18 10:41:40;;;;;;;;;;;;;;;14.04;100.00;98974.84;6277761;22;19919;-83
2022/11/18 10:44:24;;;;;;;;;;;;;;;14.08;100.00;98973.38;6278104;22;19911;-85
2022/11/18 10:46:50;;;;;;;;;;;;;;;14.12;100.00;98980.69;6251856;22;20236;-85
2022/11/18 10:49:16;;;;;;;;;;;;;;;14.35;100.00;98983.53;6251087;22;19914;-85
2022/11/18 10:51:43;;;;;;;;;;;;;;;14.41;100.00;98985.31;6278097;22;19914;-84
2022/11/18 10:54:11;;;;;;;;;;;;;;;14.37;100.00;98983.31;6278728;22;20242;-84
2022/11/18 10:56:46;;;;;;;;;;;;;;;14.57;100.00;98983.06;6279012;22;19930;-82
2022/11/18 10:59:24;;;;;;;;;;;;;;;14.47;100.00;98988.94;6278815;22;20005;-83
2022/11/18 11:01:57;;;;;;;;;;;;;;;14.37;100.00;98988.66;6284652;22;19919;-82
2022/11/18 11:04:24;;;;;;;;;;;;;;;14.44;100.00;98997.38;6258473;22;19911;-88
2022/11/18 11:06:49;;;;;;;;;;;;;;;14.47;100.00;98988.94;6250641;22;19918;-85
2022/11/18 11:09:15;;;;;;;;;;;;;;;14.52;100.00;98985.59;6277541;22;19907;-86
2022/11/18 11:11:59;;;;;;;;;;;;;;;14.73;100.00;98991.25;6277809;22;19953;-85
2022/11/18 11:14:27;;;;;;;;;;;;;;;14.53;100.00;98988.03;6277591;22;19990;-84
2022/11/18 11:17:02;;;;;;;;;;;;;;;14.42;100.00;98986.09;6277718;22;19911;-86
2022/11/18 11:19:33;;;;;;;;;;;;;;;14.62;100.00;98997.34;6277453;22;19915;-85
2022/11/18 11:21:58;;;;;;;;;;;;;;;14.50;100.00;98993.81;6277565;22;19911;-85
2022/11/18 11:24:25;;;;;;;;;;;;;;;14.53;100.00;98988.03;6277512;22;20392;-84
2022/11/18 11:27:09;;;;;;;;;;;;;;;14.44;100.00;98989.38;6277782;22;19918;-83
2022/11/18 11:29:53;;;;;;;;;;;;;;;14.51;100.00;98984.78;6278477;22;19911;-84
2022/11/18 11:32:22;;;;;;;;;;;;;;;14.70;100.00;98983.69;6251141;22;20041;-84
2022/11/18 11:34:59;;;;;;;;;;;;;;;14.54;100.00;98981.66;6278088;22;20196;-82
2022/11/18 11:37:33;;;;;;;;;;;;;;;14.50;100.00;98983.16;6279164;22;19982;-83
2022/11/18 11:40:17;;;;;;;;;;;;;;;14.56;100.00;98976.09;6279714;22;19918;-83
2022/11/18 11:42:45;;;;;;;;;;;;;;;14.74;100.00;98981.41;6281039;22;19911;-85
2022/11/18 11:45:28;;;;;;;;;;;;;;;14.60;100.00;98980.75;6280264;22;19922;-85
2022/11/18 11:47:56;;;;;;;;;;;;;;;14.57;100.00;98978.53;6278599;22;20357;-86
2022/11/18 11:50:26;;;;;;;;;;;;;;;14.76;100.00;98977.47;6277789;22;19915;-85
2022/11/18 11:53:10;;;;;;;;;;;;;;;14.79;100.00;98977.00;6277746;22;20346;-83
2022/11/18 11:55:45;;;;;;;;;;;;;;;14.73;100.00;98983.25;6277845;22;19911;-85
2022/11/18 11:58:33;;;;;;;;;;;;;;;14.87;100.00;98971.34;6250726;22;19915;-85
2022/11/18 12:01:08;;;;;;;;;;;;;;;14.66;100.00;98976.38;6280337;22;19987;-84
2022/11/18 12:03:34;;;;;;;;;;;;;;;14.59;100.00;98965.78;6289430;22;19911;-82
2022/11/18 12:05:59;;;;;;;;;;;;;;;14.79;100.00;98955.66;6290941;22;19927;-84
2022/11/18 12:08:28;;;;;;;;;;;;;;;14.94;100.00;98958.75;6296271;22;19911;-83
2022/11/18 12:11:02;;;;;;;;;;;;;;;14.90;100.00;98952.22;6298567;22;19926;-84
2022/11/18 12:13:41;;;;;;;;;;;;;;;14.78;100.00;98954.03;6299198;22;19922;-85
2022/11/18 12:16:25;;;;;;;;;;;;;;;14.61;100.00;98963.72;6286747;22;20353;-86
2022/11/18 12:18:56;;;;;;;;;;;;;;;14.48;100.00;98961.25;6280671;22;19915;-84
2022/11/18 12:21:40;;;;;;;;;;;;;;;14.51;100.00;98955.47;6253545;22;19914;-84
2022/11/18 12:24:26;;;;;;;;;;;;;;;14.58;100.00;98963.38;6280117;22;19973;-83
2022/11/18 12:26:51;;;;;;;;;;;;;;;14.85;100.00;98965.41;6285847;22;19969;-87
2022/11/18 12:29:19;;;;;;;;;;;;;;;14.90;100.00;98957.56;6286805;22;19915;-84
2022/11/18 12:31:52;;;;;;;;;;;;;;;14.67;100.00;98965.50;6277872;22;19918;-86
2022/11/18 12:34:26;;;;;;;;;;;;;;;14.76;100.00;98969.47;6277414;22;19911;-82
2022/11/18 12:36:52;;;;;;;;;;;;;;;14.75;100.00;98970.50;6278257;22;19938;-84
2022/11/18 12:39:26;;;;;;;;;;;;;;;14.85;100.00;98967.28;6276893;22;20283;-85
2022/11/18 12:44:40;;;;;;;;;;;;;;;14.78;100.00;98970.03;6250918;22;20246;-85
2022/11/18 12:47:09;;;;;;;;;;;;;;;14.78;100.00;98969.25;6278096;22;19911;-87
2022/11/18 12:49:34;;;;;;;;;;;;;;;14.71;100.00;98969.34;6279711;22;20246;-84
2022/11/18 12:52:01;;;;;;;;;;;;;;;14.88;100.00;98964.97;6280372;22;20029;-85
2022/11/18 12:54:27;;;;;;;;;;;;;;;14.83;100.00;98959.50;6279835;22;19972;-85
2022/11/18 12:56:53;;;;;;;;;;;;;;;14.82;100.00;98962.41;6279097;22;19927;-84